sensor_id;sensor_type;location;lat;lon;timestamp;temperature;humidity
16781;DHT22;8507;50.056;8.248;2023-05-19T00:00:16;11.70;99.90
16781;DHT22;8507;50.056;8.248;2023-05-19T00:02:42;11.70;99.90
16781;DHT22;8507;50.056;8.248;2023-05-19T00:05:09;11.70;99.90
16781;DHT22;8507;50.056;8.248;2023-05-19T00:07:37;11.60;99.90
16781;DHT22;8507;50.056;8.248;2023-05-19T00:10:03;11.70;99.90
16781;DHT22;8507;50.056;8.248;2023-05-19T00:12:29;11.60;99.90
16781;DHT22;8507;50.056;8.248;2023-05-19T00:14:55;11.60;99.90
16781;DHT22;8507;50.056;8.248;2023-05-19T00:17:21;11.60;99.90
16781;DHT22;8507;50.056;8.248;2023-05-19T00:19:46;11.60;99.90
16781;DHT22;8507;50.056;8.248;2023-05-19T00:22:13;11.60;99.90
16781;DHT22;8507;50.056;8.248;2023-05-19T00:24:39;11.60;99.90
16781;DHT22;8507;50.056;8.248;2023-05-19T00:27:04;11.60;99.90
16781;DHT22;8507;50.056;8.248;2023-05-19T00:29:29;11.60;99.90
16781;DHT22;8507;50.056;8.248;2023-05-19T00:31:55;11.60;99.90
16781;DHT22;8507;50.056;8.248;2023-05-19T00:34:21;11.60;99.90
16781;DHT22;8507;50.056;8.248;2023-05-19T00:36:46;11.60;99.90
16781;DHT22;8507;50.056;8.248;2023-05-19T00:39:12;11.60;99.90
16781;DHT22;8507;50.056;8.248;2023-05-19T00:41:37;11.50;99.90
16781;DHT22;8507;50.056;8.248;2023-05-19T00:44:03;11.50;99.90
16781;DHT22;8507;50.056;8.248;2023-05-19T00:46:28;11.50;99.90
16781;DHT22;8507;50.056;8.248;2023-05-19T00:48:54;11.40;99.90
16781;DHT22;8507;50.056;8.248;2023-05-19T00:51:21;11.40;99.90
16781;DHT22;8507;50.056;8.248;2023-05-19T00:53:48;11.30;99.90
16781;DHT22;8507;50.056;8.248;2023-05-19T00:56:16;11.20;99.90
16781;DHT22;8507;50.056;8.248;2023-05-19T00:58:43;11.20;99.90
16781;DHT22;8507;50.056;8.248;2023-05-19T01:01:08;11.20;99.90
16781;DHT22;8507;50.056;8.248;2023-05-19T01:03:36;11.20;99.90
16781;DHT22;8507;50.056;8.248;2023-05-19T01:06:02;11.10;99.90
16781;DHT22;8507;50.056;8.248;2023-05-19T01:08:33;11.20;99.90
16781;DHT22;8507;50.056;8.248;2023-05-19T01:10:59;11.20;99.90
16781;DHT22;8507;50.056;8.248;2023-05-19T01:13:26;11.20;99.90
16781;DHT22;8507;50.056;8.248;2023-05-19T01:18:57;11.20;99.90
16781;DHT22;8507;50.056;8.248;2023-05-19T01:32:53;11.10;99.90
16781;DHT22;8507;50.056;8.248;2023-05-19T01:35:22;11.10;99.90
16781;DHT22;8507;50.056;8.248;2023-05-19T01:37:51;11.10;99.90
16781;DHT22;8507;50.056;8.248;2023-05-19T01:40:18;11.00;99.90
16781;DHT22;8507;50.056;8.248;2023-05-19T01:42:45;11.00;99.90
16781;DHT22;8507;50.056;8.248;2023-05-19T01:45:12;11.00;99.90
16781;DHT22;8507;50.056;8.248;2023-05-19T01:47:41;10.90;99.90
16781;DHT22;8507;50.056;8.248;2023-05-19T01:50:07;10.90;99.90
16781;DHT22;8507;50.056;8.248;2023-05-19T01:52:32;10.80;99.90
16781;DHT22;8507;50.056;8.248;2023-05-19T01:54:58;10.90;99.90
16781;DHT22;8507;50.056;8.248;2023-05-19T01:57:35;10.90;99.90
16781;DHT22;8507;50.056;8.248;2023-05-19T02:00:19;10.80;99.90
16781;DHT22;8507;50.056;8.248;2023-05-19T02:08:33;10.70;99.90
16781;DHT22;8507;50.056;8.248;2023-05-19T02:11:07;10.70;99.90
16781;DHT22;8507;50.056;8.248;2023-05-19T02:13:39;10.70;99.90
16781;DHT22;8507;50.056;8.248;2023-05-19T02:16:08;10.70;99.90
16781;DHT22;8507;50.056;8.248;2023-05-19T02:18:35;10.60;99.90
16781;DHT22;8507;50.056;8.248;2023-05-19T02:21:01;10.70;99.90
16781;DHT22;8507;50.056;8.248;2023-05-19T02:23:26;10.70;99.90
16781;DHT22;8507;50.056;8.248;2023-05-19T02:25:52;10.60;99.90
16781;DHT22;8507;50.056;8.248;2023-05-19T02:28:17;10.60;99.90
16781;DHT22;8507;50.056;8.248;2023-05-19T02:30:43;10.60;99.90
16781;DHT22;8507;50.056;8.248;2023-05-19T02:33:09;10.60;99.90
16781;DHT22;8507;50.056;8.248;2023-05-19T02:35:36;10.60;99.90
16781;DHT22;8507;50.056;8.248;2023-05-19T02:38:01;10.50;99.90
16781;DHT22;8507;50.056;8.248;2023-05-19T02:40:27;10.50;99.90
16781;DHT22;8507;50.056;8.248;2023-05-19T02:42:52;10.50;99.90
16781;DHT22;8507;50.056;8.248;2023-05-19T02:45:18;10.50;99.90
16781;DHT22;8507;50.056;8.248;2023-05-19T02:47:43;10.40;99.90
16781;DHT22;8507;50.056;8.248;2023-05-19T02:50:09;10.50;99.90
16781;DHT22;8507;50.056;8.248;2023-05-19T02:52:35;10.50;99.90
16781;DHT22;8507;50.056;8.248;2023-05-19T02:55:00;10.40;99.90
16781;DHT22;8507;50.056;8.248;2023-05-19T02:57:27;10.40;99.90
16781;DHT22;8507;50.056;8.248;2023-05-19T02:59:53;10.50;99.90
16781;DHT22;8507;50.056;8.248;2023-05-19T03:02:18;10.50;99.90
16781;DHT22;8507;50.056;8.248;2023-05-19T03:04:44;10.40;99.90
16781;DHT22;8507;50.056;8.248;2023-05-19T03:07:09;10.40;99.90
16781;DHT22;8507;50.056;8.248;2023-05-19T03:09:36;10.30;99.90
16781;DHT22;8507;50.056;8.248;2023-05-19T03:12:02;10.20;99.90
16781;DHT22;8507;50.056;8.248;2023-05-19T03:14:29;10.20;99.90
16781;DHT22;8507;50.056;8.248;2023-05-19T03:16:54;10.20;99.90
16781;DHT22;8507;50.056;8.248;2023-05-19T03:19:20;10.10;99.90
16781;DHT22;8507;50.056;8.248;2023-05-19T03:21:46;10.10;99.90
16781;DHT22;8507;50.056;8.248;2023-05-19T03:24:12;10.10;99.90
16781;DHT22;8507;50.056;8.248;2023-05-19T03:26:37;10.10;99.90
16781;DHT22;8507;50.056;8.248;2023-05-19T03:29:03;10.10;99.90
16781;DHT22;8507;50.056;8.248;2023-05-19T03:31:28;10.10;99.90
16781;DHT22;8507;50.056;8.248;2023-05-19T03:33:55;10.20;99.90
16781;DHT22;8507;50.056;8.248;2023-05-19T03:36:22;10.30;99.90
16781;DHT22;8507;50.056;8.248;2023-05-19T03:38:48;10.30;99.90
16781;DHT22;8507;50.056;8.248;2023-05-19T03:41:13;10.30;99.90
16781;DHT22;8507;50.056;8.248;2023-05-19T03:43:39;10.20;99.90
16781;DHT22;8507;50.056;8.248;2023-05-19T03:46:05;10.20;99.90
16781;DHT22;8507;50.056;8.248;2023-05-19T03:48:30;10.10;99.90
16781;DHT22;8507;50.056;8.248;2023-05-19T03:50:56;10.10;99.90
16781;DHT22;8507;50.056;8.248;2023-05-19T03:53:22;10.10;99.90
16781;DHT22;8507;50.056;8.248;2023-05-19T03:55:48;10.30;99.90
16781;DHT22;8507;50.056;8.248;2023-05-19T03:58:14;10.30;99.90
16781;DHT22;8507;50.056;8.248;2023-05-19T04:00:40;10.60;99.90
16781;DHT22;8507;50.056;8.248;2023-05-19T04:03:06;11.10;99.90
16781;DHT22;8507;50.056;8.248;2023-05-19T04:05:32;11.70;99.90
16781;DHT22;8507;50.056;8.248;2023-05-19T04:07:58;12.10;99.90
16781;DHT22;8507;50.056;8.248;2023-05-19T04:10:24;12.00;99.90
16781;DHT22;8507;50.056;8.248;2023-05-19T04:12:49;11.90;99.90
16781;DHT22;8507;50.056;8.248;2023-05-19T04:15:15;12.00;99.90
16781;DHT22;8507;50.056;8.248;2023-05-19T04:17:41;11.90;99.90
16781;DHT22;8507;50.056;8.248;2023-05-19T04:20:07;12.10;99.90
16781;DHT22;8507;50.056;8.248;2023-05-19T04:22:32;11.90;99.90
16781;DHT22;8507;50.056;8.248;2023-05-19T04:24:58;11.60;99.90
16781;DHT22;8507;50.056;8.248;2023-05-19T04:27:24;11.60;99.90
16781;DHT22;8507;50.056;8.248;2023-05-19T04:29:52;11.30;99.90
16781;DHT22;8507;50.056;8.248;2023-05-19T04:32:19;11.20;99.90
16781;DHT22;8507;50.056;8.248;2023-05-19T04:34:44;11.30;99.90
16781;DHT22;8507;50.056;8.248;2023-05-19T04:37:13;11.40;99.90
16781;DHT22;8507;50.056;8.248;2023-05-19T04:39:40;11.20;99.90
16781;DHT22;8507;50.056;8.248;2023-05-19T04:42:08;11.20;99.90
16781;DHT22;8507;50.056;8.248;2023-05-19T04:44:39;11.10;99.90
16781;DHT22;8507;50.056;8.248;2023-05-19T04:47:06;11.00;99.90
16781;DHT22;8507;50.056;8.248;2023-05-19T04:49:33;11.20;99.90
16781;DHT22;8507;50.056;8.248;2023-05-19T04:52:04;11.30;99.90
16781;DHT22;8507;50.056;8.248;2023-05-19T04:54:30;11.50;99.90
16781;DHT22;8507;50.056;8.248;2023-05-19T04:56:56;11.60;99.90
16781;DHT22;8507;50.056;8.248;2023-05-19T04:59:21;11.50;99.90
16781;DHT22;8507;50.056;8.248;2023-05-19T05:01:47;11.30;99.90
16781;DHT22;8507;50.056;8.248;2023-05-19T05:04:13;11.30;99.90
16781;DHT22;8507;50.056;8.248;2023-05-19T05:06:38;11.50;99.90
16781;DHT22;8507;50.056;8.248;2023-05-19T05:09:06;11.50;99.90
16781;DHT22;8507;50.056;8.248;2023-05-19T05:11:32;11.50;99.90
16781;DHT22;8507;50.056;8.248;2023-05-19T05:13:58;11.60;99.90
16781;DHT22;8507;50.056;8.248;2023-05-19T05:16:24;11.60;99.90
16781;DHT22;8507;50.056;8.248;2023-05-19T05:18:50;11.70;99.90
16781;DHT22;8507;50.056;8.248;2023-05-19T05:21:16;11.70;99.90
16781;DHT22;8507;50.056;8.248;2023-05-19T05:23:42;11.80;99.90
16781;DHT22;8507;50.056;8.248;2023-05-19T05:26:16;11.80;99.90
16781;DHT22;8507;50.056;8.248;2023-05-19T05:28:43;11.90;99.90
16781;DHT22;8507;50.056;8.248;2023-05-19T05:31:09;12.00;99.90
16781;DHT22;8507;50.056;8.248;2023-05-19T05:33:34;12.00;99.90
16781;DHT22;8507;50.056;8.248;2023-05-19T05:36:00;12.10;99.90
16781;DHT22;8507;50.056;8.248;2023-05-19T05:38:25;12.10;99.90
16781;DHT22;8507;50.056;8.248;2023-05-19T05:40:51;12.10;99.90
16781;DHT22;8507;50.056;8.248;2023-05-19T05:43:16;12.20;99.90
16781;DHT22;8507;50.056;8.248;2023-05-19T05:45:42;12.30;99.90
16781;DHT22;8507;50.056;8.248;2023-05-19T05:48:08;12.50;99.90
16781;DHT22;8507;50.056;8.248;2023-05-19T05:50:33;12.70;99.90
16781;DHT22;8507;50.056;8.248;2023-05-19T05:53:00;12.80;99.90
16781;DHT22;8507;50.056;8.248;2023-05-19T05:55:28;13.20;99.90
16781;DHT22;8507;50.056;8.248;2023-05-19T05:57:53;13.20;99.90
16781;DHT22;8507;50.056;8.248;2023-05-19T06:00:21;13.30;99.90
16781;DHT22;8507;50.056;8.248;2023-05-19T06:02:49;13.30;99.90
16781;DHT22;8507;50.056;8.248;2023-05-19T06:05:15;13.60;99.90
16781;DHT22;8507;50.056;8.248;2023-05-19T06:07:41;13.70;99.90
16781;DHT22;8507;50.056;8.248;2023-05-19T06:10:07;13.80;99.90
16781;DHT22;8507;50.056;8.248;2023-05-19T06:12:34;13.90;99.90
16781;DHT22;8507;50.056;8.248;2023-05-19T06:15:01;14.10;99.90
16781;DHT22;8507;50.056;8.248;2023-05-19T06:17:27;14.10;99.90
16781;DHT22;8507;50.056;8.248;2023-05-19T06:19:53;14.00;99.90
16781;DHT22;8507;50.056;8.248;2023-05-19T06:22:18;14.00;99.90
16781;DHT22;8507;50.056;8.248;2023-05-19T06:24:44;14.10;99.90
16781;DHT22;8507;50.056;8.248;2023-05-19T06:27:09;14.40;99.90
16781;DHT22;8507;50.056;8.248;2023-05-19T06:29:35;14.40;99.90
16781;DHT22;8507;50.056;8.248;2023-05-19T06:32:01;14.40;99.90
16781;DHT22;8507;50.056;8.248;2023-05-19T06:34:26;14.60;99.90
16781;DHT22;8507;50.056;8.248;2023-05-19T06:36:52;14.60;99.90
16781;DHT22;8507;50.056;8.248;2023-05-19T06:39:17;14.50;99.90
16781;DHT22;8507;50.056;8.248;2023-05-19T06:41:43;14.50;99.90
16781;DHT22;8507;50.056;8.248;2023-05-19T06:44:08;14.70;99.90
16781;DHT22;8507;50.056;8.248;2023-05-19T06:46:34;14.80;99.90
16781;DHT22;8507;50.056;8.248;2023-05-19T06:49:00;14.70;99.90
16781;DHT22;8507;50.056;8.248;2023-05-19T06:51:25;14.80;99.90
16781;DHT22;8507;50.056;8.248;2023-05-19T06:53:51;14.70;99.90
16781;DHT22;8507;50.056;8.248;2023-05-19T06:56:16;14.50;99.90
16781;DHT22;8507;50.056;8.248;2023-05-19T06:58:43;14.40;99.90
16781;DHT22;8507;50.056;8.248;2023-05-19T07:01:09;14.90;99.90
16781;DHT22;8507;50.056;8.248;2023-05-19T07:03:35;14.70;99.90
16781;DHT22;8507;50.056;8.248;2023-05-19T07:06:00;14.60;99.90
16781;DHT22;8507;50.056;8.248;2023-05-19T07:08:26;14.80;99.90
16781;DHT22;8507;50.056;8.248;2023-05-19T07:10:52;14.90;99.90
16781;DHT22;8507;50.056;8.248;2023-05-19T07:13:18;14.90;99.90
16781;DHT22;8507;50.056;8.248;2023-05-19T07:15:43;15.00;99.90
16781;DHT22;8507;50.056;8.248;2023-05-19T07:18:09;15.20;99.90
16781;DHT22;8507;50.056;8.248;2023-05-19T07:20:35;15.40;99.90
16781;DHT22;8507;50.056;8.248;2023-05-19T07:23:00;15.20;99.90
16781;DHT22;8507;50.056;8.248;2023-05-19T07:25:27;15.20;99.90
16781;DHT22;8507;50.056;8.248;2023-05-19T07:27:55;15.30;99.90
16781;DHT22;8507;50.056;8.248;2023-05-19T07:30:20;15.20;99.90
16781;DHT22;8507;50.056;8.248;2023-05-19T07:32:46;15.30;99.90
16781;DHT22;8507;50.056;8.248;2023-05-19T07:35:12;15.50;99.90
16781;DHT22;8507;50.056;8.248;2023-05-19T07:37:37;15.40;99.90
16781;DHT22;8507;50.056;8.248;2023-05-19T07:40:04;15.20;99.90
16781;DHT22;8507;50.056;8.248;2023-05-19T07:42:31;15.20;99.90
16781;DHT22;8507;50.056;8.248;2023-05-19T07:44:56;15.10;99.90
16781;DHT22;8507;50.056;8.248;2023-05-19T07:47:21;15.30;99.90
16781;DHT22;8507;50.056;8.248;2023-05-19T07:49:47;15.60;99.90
16781;DHT22;8507;50.056;8.248;2023-05-19T07:52:12;15.80;99.90
16781;DHT22;8507;50.056;8.248;2023-05-19T07:54:38;15.90;99.90
16781;DHT22;8507;50.056;8.248;2023-05-19T07:57:04;16.10;99.90
16781;DHT22;8507;50.056;8.248;2023-05-19T07:59:30;16.20;99.90
16781;DHT22;8507;50.056;8.248;2023-05-19T08:01:55;16.10;99.90
16781;DHT22;8507;50.056;8.248;2023-05-19T08:04:21;16.30;99.90
16781;DHT22;8507;50.056;8.248;2023-05-19T08:06:47;16.60;99.90
16781;DHT22;8507;50.056;8.248;2023-05-19T08:09:12;16.40;99.90
16781;DHT22;8507;50.056;8.248;2023-05-19T08:11:38;16.20;99.90
16781;DHT22;8507;50.056;8.248;2023-05-19T08:14:03;16.30;99.90
16781;DHT22;8507;50.056;8.248;2023-05-19T08:16:29;16.60;99.90
16781;DHT22;8507;50.056;8.248;2023-05-19T08:18:54;16.60;99.90
16781;DHT22;8507;50.056;8.248;2023-05-19T08:21:20;16.40;99.90
16781;DHT22;8507;50.056;8.248;2023-05-19T08:23:46;16.70;99.90
16781;DHT22;8507;50.056;8.248;2023-05-19T08:26:11;17.00;99.90
16781;DHT22;8507;50.056;8.248;2023-05-19T08:28:37;17.40;99.90
16781;DHT22;8507;50.056;8.248;2023-05-19T08:31:02;16.80;99.90
16781;DHT22;8507;50.056;8.248;2023-05-19T08:33:28;17.20;99.90
16781;DHT22;8507;50.056;8.248;2023-05-19T08:35:55;16.70;99.90
16781;DHT22;8507;50.056;8.248;2023-05-19T08:38:22;16.70;99.90
16781;DHT22;8507;50.056;8.248;2023-05-19T08:40:48;17.00;99.90
16781;DHT22;8507;50.056;8.248;2023-05-19T08:43:13;17.40;99.90
16781;DHT22;8507;50.056;8.248;2023-05-19T08:45:42;17.00;99.90
16781;DHT22;8507;50.056;8.248;2023-05-19T08:48:09;17.30;99.90
16781;DHT22;8507;50.056;8.248;2023-05-19T08:50:38;17.40;99.90
16781;DHT22;8507;50.056;8.248;2023-05-19T08:53:13;17.70;99.90
16781;DHT22;8507;50.056;8.248;2023-05-19T08:55:57;17.80;99.90
16781;DHT22;8507;50.056;8.248;2023-05-19T08:58:25;17.60;99.90
16781;DHT22;8507;50.056;8.248;2023-05-19T09:00:52;17.50;99.90
16781;DHT22;8507;50.056;8.248;2023-05-19T09:03:18;17.40;99.90
16781;DHT22;8507;50.056;8.248;2023-05-19T09:05:45;17.50;99.90
16781;DHT22;8507;50.056;8.248;2023-05-19T09:08:11;17.40;99.90
16781;DHT22;8507;50.056;8.248;2023-05-19T09:10:37;17.70;99.90
16781;DHT22;8507;50.056;8.248;2023-05-19T09:13:04;17.90;99.90
16781;DHT22;8507;50.056;8.248;2023-05-19T09:15:30;17.70;99.90
16781;DHT22;8507;50.056;8.248;2023-05-19T09:18:24;17.80;99.90
16781;DHT22;8507;50.056;8.248;2023-05-19T09:21:00;18.00;99.90
16781;DHT22;8507;50.056;8.248;2023-05-19T09:23:31;18.20;99.90
16781;DHT22;8507;50.056;8.248;2023-05-19T09:26:01;18.30;99.90
16781;DHT22;8507;50.056;8.248;2023-05-19T09:28:29;17.90;99.90
16781;DHT22;8507;50.056;8.248;2023-05-19T09:31:03;18.10;99.90
16781;DHT22;8507;50.056;8.248;2023-05-19T09:33:29;18.30;99.90
16781;DHT22;8507;50.056;8.248;2023-05-19T09:35:56;18.70;99.90
16781;DHT22;8507;50.056;8.248;2023-05-19T09:38:26;18.40;99.90
16781;DHT22;8507;50.056;8.248;2023-05-19T09:40:55;18.10;99.90
16781;DHT22;8507;50.056;8.248;2023-05-19T09:43:21;18.00;99.90
16781;DHT22;8507;50.056;8.248;2023-05-19T09:45:48;18.60;99.90
16781;DHT22;8507;50.056;8.248;2023-05-19T09:48:14;18.70;99.90
16781;DHT22;8507;50.056;8.248;2023-05-19T09:50:42;18.40;99.90
16781;DHT22;8507;50.056;8.248;2023-05-19T09:53:12;18.00;99.90
16781;DHT22;8507;50.056;8.248;2023-05-19T09:55:39;18.00;99.90
16781;DHT22;8507;50.056;8.248;2023-05-19T09:58:05;18.50;99.90
16781;DHT22;8507;50.056;8.248;2023-05-19T10:00:31;18.60;99.90
16781;DHT22;8507;50.056;8.248;2023-05-19T10:02:58;18.60;99.90
16781;DHT22;8507;50.056;8.248;2023-05-19T10:05:25;18.20;99.90
16781;DHT22;8507;50.056;8.248;2023-05-19T10:07:52;18.50;99.90
16781;DHT22;8507;50.056;8.248;2023-05-19T10:10:20;18.90;99.90
16781;DHT22;8507;50.056;8.248;2023-05-19T10:12:47;18.90;99.90
16781;DHT22;8507;50.056;8.248;2023-05-19T10:15:14;19.00;99.90
16781;DHT22;8507;50.056;8.248;2023-05-19T10:17:41;18.80;99.90
16781;DHT22;8507;50.056;8.248;2023-05-19T10:20:11;18.70;99.90
16781;DHT22;8507;50.056;8.248;2023-05-19T10:22:41;18.80;99.90
16781;DHT22;8507;50.056;8.248;2023-05-19T10:25:08;19.10;99.90
16781;DHT22;8507;50.056;8.248;2023-05-19T10:27:53;19.20;99.90
16781;DHT22;8507;50.056;8.248;2023-05-19T10:30:35;18.70;99.90
16781;DHT22;8507;50.056;8.248;2023-05-19T10:33:02;18.80;99.90
16781;DHT22;8507;50.056;8.248;2023-05-19T10:44:22;19.70;99.90
16781;DHT22;8507;50.056;8.248;2023-05-19T10:46:52;19.90;99.90
16781;DHT22;8507;50.056;8.248;2023-05-19T10:49:21;19.40;99.90
16781;DHT22;8507;50.056;8.248;2023-05-19T10:51:47;19.50;99.90
16781;DHT22;8507;50.056;8.248;2023-05-19T10:54:13;19.00;99.90
16781;DHT22;8507;50.056;8.248;2023-05-19T10:56:42;19.50;99.90
16781;DHT22;8507;50.056;8.248;2023-05-19T10:59:30;19.30;99.90
16781;DHT22;8507;50.056;8.248;2023-05-19T11:01:56;19.70;99.90
16781;DHT22;8507;50.056;8.248;2023-05-19T11:04:47;19.20;99.90
16781;DHT22;8507;50.056;8.248;2023-05-19T11:07:21;19.60;99.90
16781;DHT22;8507;50.056;8.248;2023-05-19T11:09:52;19.20;99.90
16781;DHT22;8507;50.056;8.248;2023-05-19T11:12:22;19.20;99.90
16781;DHT22;8507;50.056;8.248;2023-05-19T11:14:51;19.20;99.90
16781;DHT22;8507;50.056;8.248;2023-05-19T11:17:18;18.70;99.90
16781;DHT22;8507;50.056;8.248;2023-05-19T11:19:56;19.00;99.90
16781;DHT22;8507;50.056;8.248;2023-05-19T11:22:26;19.60;99.90
16781;DHT22;8507;50.056;8.248;2023-05-19T11:24:56;19.70;99.90
16781;DHT22;8507;50.056;8.248;2023-05-19T11:27:32;20.10;99.90
16781;DHT22;8507;50.056;8.248;2023-05-19T11:30:16;20.40;99.90
16781;DHT22;8507;50.056;8.248;2023-05-19T11:32:46;20.20;99.90
16781;DHT22;8507;50.056;8.248;2023-05-19T11:35:12;20.00;99.90
16781;DHT22;8507;50.056;8.248;2023-05-19T11:37:39;19.70;99.90
16781;DHT22;8507;50.056;8.248;2023-05-19T11:40:07;20.10;99.90
16781;DHT22;8507;50.056;8.248;2023-05-19T11:42:34;19.60;99.90
16781;DHT22;8507;50.056;8.248;2023-05-19T11:45:02;20.00;99.90
16781;DHT22;8507;50.056;8.248;2023-05-19T11:47:29;20.50;99.90
16781;DHT22;8507;50.056;8.248;2023-05-19T11:49:55;20.00;99.90
16781;DHT22;8507;50.056;8.248;2023-05-19T11:52:21;19.90;99.90
16781;DHT22;8507;50.056;8.248;2023-05-19T11:54:47;19.70;99.90
16781;DHT22;8507;50.056;8.248;2023-05-19T11:57:13;20.30;99.90
16781;DHT22;8507;50.056;8.248;2023-05-19T11:59:39;20.00;99.90
16781;DHT22;8507;50.056;8.248;2023-05-19T12:02:18;20.00;99.90
16781;DHT22;8507;50.056;8.248;2023-05-19T12:04:45;19.90;99.90
16781;DHT22;8507;50.056;8.248;2023-05-19T12:07:11;20.00;99.90
16781;DHT22;8507;50.056;8.248;2023-05-19T12:09:37;19.80;99.90
16781;DHT22;8507;50.056;8.248;2023-05-19T12:12:03;19.60;99.90
16781;DHT22;8507;50.056;8.248;2023-05-19T12:14:29;19.80;99.90
16781;DHT22;8507;50.056;8.248;2023-05-19T12:16:55;19.90;99.90
16781;DHT22;8507;50.056;8.248;2023-05-19T12:19:22;19.90;99.90
16781;DHT22;8507;50.056;8.248;2023-05-19T12:21:50;20.10;99.90
16781;DHT22;8507;50.056;8.248;2023-05-19T12:24:16;19.60;99.90
16781;DHT22;8507;50.056;8.248;2023-05-19T12:26:41;19.80;99.90
16781;DHT22;8507;50.056;8.248;2023-05-19T12:29:07;20.40;99.90
16781;DHT22;8507;50.056;8.248;2023-05-19T12:31:33;20.70;99.90
16781;DHT22;8507;50.056;8.248;2023-05-19T12:33:59;20.20;99.90
16781;DHT22;8507;50.056;8.248;2023-05-19T12:36:26;20.90;99.90
16781;DHT22;8507;50.056;8.248;2023-05-19T12:38:55;20.80;99.90
16781;DHT22;8507;50.056;8.248;2023-05-19T12:41:23;21.20;99.90
16781;DHT22;8507;50.056;8.248;2023-05-19T12:43:49;21.20;99.90
16781;DHT22;8507;50.056;8.248;2023-05-19T12:46:17;20.60;99.90
16781;DHT22;8507;50.056;8.248;2023-05-19T12:48:43;20.10;99.90
16781;DHT22;8507;50.056;8.248;2023-05-19T12:51:10;20.10;99.90
16781;DHT22;8507;50.056;8.248;2023-05-19T12:53:40;20.00;99.90
16781;DHT22;8507;50.056;8.248;2023-05-19T12:56:25;19.70;99.90
16781;DHT22;8507;50.056;8.248;2023-05-19T12:58:54;20.30;99.90
16781;DHT22;8507;50.056;8.248;2023-05-19T13:01:21;20.40;99.90
16781;DHT22;8507;50.056;8.248;2023-05-19T13:03:47;20.50;99.90
16781;DHT22;8507;50.056;8.248;2023-05-19T13:06:12;20.60;99.90
16781;DHT22;8507;50.056;8.248;2023-05-19T13:08:39;20.60;99.90
16781;DHT22;8507;50.056;8.248;2023-05-19T13:11:05;20.80;99.90
16781;DHT22;8507;50.056;8.248;2023-05-19T13:13:31;20.80;99.90
16781;DHT22;8507;50.056;8.248;2023-05-19T13:15:56;20.40;99.90
16781;DHT22;8507;50.056;8.248;2023-05-19T13:18:22;20.60;99.90
16781;DHT22;8507;50.056;8.248;2023-05-19T13:20:48;20.90;99.90
16781;DHT22;8507;50.056;8.248;2023-05-19T13:23:16;21.40;99.90
16781;DHT22;8507;50.056;8.248;2023-05-19T13:25:42;21.40;99.90
16781;DHT22;8507;50.056;8.248;2023-05-19T13:28:08;21.10;99.90
16781;DHT22;8507;50.056;8.248;2023-05-19T13:30:34;20.60;99.90
16781;DHT22;8507;50.056;8.248;2023-05-19T13:33:01;20.60;99.90
16781;DHT22;8507;50.056;8.248;2023-05-19T13:35:26;20.50;99.90
16781;DHT22;8507;50.056;8.248;2023-05-19T13:37:52;20.10;99.90
16781;DHT22;8507;50.056;8.248;2023-05-19T13:40:18;20.10;99.90
16781;DHT22;8507;50.056;8.248;2023-05-19T13:42:43;20.40;99.90
16781;DHT22;8507;50.056;8.248;2023-05-19T13:45:09;20.70;99.90
16781;DHT22;8507;50.056;8.248;2023-05-19T13:47:35;20.60;99.90
16781;DHT22;8507;50.056;8.248;2023-05-19T13:50:02;20.80;99.90
16781;DHT22;8507;50.056;8.248;2023-05-19T13:52:28;20.50;99.90
16781;DHT22;8507;50.056;8.248;2023-05-19T13:54:54;20.40;99.90
16781;DHT22;8507;50.056;8.248;2023-05-19T13:57:22;20.20;99.90
16781;DHT22;8507;50.056;8.248;2023-05-19T13:59:47;19.80;99.90
16781;DHT22;8507;50.056;8.248;2023-05-19T14:02:13;20.20;99.90
16781;DHT22;8507;50.056;8.248;2023-05-19T14:04:38;19.90;99.90
16781;DHT22;8507;50.056;8.248;2023-05-19T14:07:05;20.00;99.90
16781;DHT22;8507;50.056;8.248;2023-05-19T14:09:31;20.20;99.90
16781;DHT22;8507;50.056;8.248;2023-05-19T14:11:56;20.20;99.90
16781;DHT22;8507;50.056;8.248;2023-05-19T14:14:22;20.40;99.90
16781;DHT22;8507;50.056;8.248;2023-05-19T14:16:47;20.20;99.90
16781;DHT22;8507;50.056;8.248;2023-05-19T14:19:13;20.50;99.90
16781;DHT22;8507;50.056;8.248;2023-05-19T14:21:38;20.50;99.90
16781;DHT22;8507;50.056;8.248;2023-05-19T14:24:04;20.50;99.90
16781;DHT22;8507;50.056;8.248;2023-05-19T14:26:30;20.40;99.90
16781;DHT22;8507;50.056;8.248;2023-05-19T14:28:55;20.20;99.90
16781;DHT22;8507;50.056;8.248;2023-05-19T14:31:21;20.10;99.90
16781;DHT22;8507;50.056;8.248;2023-05-19T14:33:47;20.20;99.90
16781;DHT22;8507;50.056;8.248;2023-05-19T14:36:12;20.60;99.90
16781;DHT22;8507;50.056;8.248;2023-05-19T14:38:38;21.10;99.90
16781;DHT22;8507;50.056;8.248;2023-05-19T14:41:04;20.80;99.90
16781;DHT22;8507;50.056;8.248;2023-05-19T14:43:30;21.10;99.90
16781;DHT22;8507;50.056;8.248;2023-05-19T14:45:56;21.10;99.90
16781;DHT22;8507;50.056;8.248;2023-05-19T14:48:21;20.60;99.90
16781;DHT22;8507;50.056;8.248;2023-05-19T14:50:47;20.80;99.90
16781;DHT22;8507;50.056;8.248;2023-05-19T14:53:13;21.00;99.90
16781;DHT22;8507;50.056;8.248;2023-05-19T14:55:38;20.60;99.90
16781;DHT22;8507;50.056;8.248;2023-05-19T14:58:04;20.50;99.90
16781;DHT22;8507;50.056;8.248;2023-05-19T15:00:29;20.40;99.90
16781;DHT22;8507;50.056;8.248;2023-05-19T15:02:55;20.30;99.90
16781;DHT22;8507;50.056;8.248;2023-05-19T15:05:20;20.30;99.90
16781;DHT22;8507;50.056;8.248;2023-05-19T15:07:48;20.30;99.90
16781;DHT22;8507;50.056;8.248;2023-05-19T15:10:14;20.10;99.90
16781;DHT22;8507;50.056;8.248;2023-05-19T15:12:40;20.00;99.90
16781;DHT22;8507;50.056;8.248;2023-05-19T15:15:06;19.90;99.90
16781;DHT22;8507;50.056;8.248;2023-05-19T15:17:32;19.60;99.90
16781;DHT22;8507;50.056;8.248;2023-05-19T15:19:58;19.70;99.90
16781;DHT22;8507;50.056;8.248;2023-05-19T15:22:23;19.80;99.90
16781;DHT22;8507;50.056;8.248;2023-05-19T15:24:49;19.90;99.90
16781;DHT22;8507;50.056;8.248;2023-05-19T15:27:14;20.10;99.90
16781;DHT22;8507;50.056;8.248;2023-05-19T15:29:40;20.10;99.90
16781;DHT22;8507;50.056;8.248;2023-05-19T15:32:06;20.00;99.90
16781;DHT22;8507;50.056;8.248;2023-05-19T15:34:31;19.90;99.90
16781;DHT22;8507;50.056;8.248;2023-05-19T15:36:57;19.70;99.90
16781;DHT22;8507;50.056;8.248;2023-05-19T15:39:22;19.60;99.90
16781;DHT22;8507;50.056;8.248;2023-05-19T15:41:51;19.60;99.90
16781;DHT22;8507;50.056;8.248;2023-05-19T15:44:17;19.60;99.90
16781;DHT22;8507;50.056;8.248;2023-05-19T15:46:42;19.60;99.90
16781;DHT22;8507;50.056;8.248;2023-05-19T15:49:08;19.60;99.90
16781;DHT22;8507;50.056;8.248;2023-05-19T15:51:33;19.50;99.90
16781;DHT22;8507;50.056;8.248;2023-05-19T15:53:59;19.50;99.90
16781;DHT22;8507;50.056;8.248;2023-05-19T15:56:25;19.40;99.90
16781;DHT22;8507;50.056;8.248;2023-05-19T15:58:50;19.30;99.90
16781;DHT22;8507;50.056;8.248;2023-05-19T16:01:16;19.40;99.90
16781;DHT22;8507;50.056;8.248;2023-05-19T16:03:43;19.30;99.90
16781;DHT22;8507;50.056;8.248;2023-05-19T16:06:09;19.10;99.90
16781;DHT22;8507;50.056;8.248;2023-05-19T16:08:34;19.10;99.90
16781;DHT22;8507;50.056;8.248;2023-05-19T16:11:00;19.10;99.90